createdAt,value
2023-01-12T00:00:51.105Z,3.47
2023-01-12T00:02:53.076Z,3.00
2023-01-12T00:04:54.819Z,3.00
2023-01-12T00:06:57.267Z,3.40
2023-01-12T00:09:02.405Z,3.77
2023-01-12T00:11:04.738Z,2.93
2023-01-12T00:13:06.463Z,2.80
2023-01-12T00:15:08.771Z,2.80
2023-01-12T00:17:16.507Z,3.10
2023-01-12T00:19:20.400Z,3.10
2023-01-12T00:21:22.053Z,2.63
2023-01-12T00:23:26.025Z,3.07
2023-01-12T00:25:27.718Z,2.90
2023-01-12T00:27:31.693Z,3.10
2023-01-12T00:29:36.940Z,3.87
2023-01-12T00:31:38.661Z,3.33
2023-01-12T00:33:40.551Z,3.33
2023-01-12T00:35:42.245Z,3.10
2023-01-12T00:37:43.920Z,3.20
2023-01-12T00:40:00.982Z,2.97
2023-01-12T00:45:00.823Z,3.17
2023-01-12T00:47:02.638Z,3.10
2023-01-12T00:49:05.687Z,3.37
2023-01-12T00:51:09.717Z,3.83
2023-01-12T00:53:12.170Z,3.10
2023-01-12T00:55:14.007Z,3.13
2023-01-12T00:57:17.876Z,3.33
2023-01-12T00:59:20.781Z,3.13
2023-01-12T01:01:22.644Z,2.73
2023-01-12T01:03:24.381Z,3.33
2023-01-12T01:05:26.060Z,3.10
2023-01-12T01:07:27.804Z,3.13
2023-01-12T01:09:30.281Z,3.77
2023-01-12T01:11:32.619Z,3.07
2023-01-12T01:13:36.445Z,2.63
2023-01-12T01:15:38.157Z,3.30
2023-01-12T01:17:44.390Z,3.20
2023-01-12T01:19:48.253Z,3.23
2023-01-12T01:21:50.211Z,4.10
2023-01-12T01:23:52.790Z,3.03
2023-01-12T01:25:54.953Z,3.23
2023-01-12T01:27:56.674Z,3.27
2023-01-12T01:29:58.340Z,3.07
2023-01-12T01:32:00.032Z,3.30
2023-01-12T01:34:02.035Z,2.87
2023-01-12T01:36:06.109Z,3.53
2023-01-12T01:38:10.626Z,3.70
2023-01-12T01:40:12.749Z,2.57
2023-01-12T01:42:28.515Z,3.23
2023-01-12T01:44:30.274Z,2.70
2023-01-12T01:47:03.143Z,3.30
2023-01-12T01:49:43.363Z,2.50
2023-01-12T01:51:45.915Z,3.90
2023-01-12T01:53:48.531Z,3.43
2023-01-12T01:55:58.555Z,2.43
2023-01-12T01:58:10.212Z,3.27
2023-01-12T02:00:13.172Z,2.77
2023-01-12T02:02:16.601Z,3.40
2023-01-12T02:04:20.483Z,3.60
2023-01-12T02:06:25.754Z,3.30
2023-01-12T02:08:39.751Z,3.10
2023-01-12T02:10:42.874Z,3.60
2023-01-12T02:13:04.095Z,3.10
2023-01-12T02:15:25.514Z,3.40
2023-01-12T02:17:36.222Z,2.93
2023-01-12T02:20:01.888Z,3.70
2023-01-12T02:22:28.245Z,3.03
2023-01-12T02:24:56.725Z,3.20
2023-01-12T02:27:13.032Z,3.00
2023-01-12T02:29:34.526Z,2.97
2023-01-12T02:31:43.369Z,3.47
2023-01-12T02:34:05.859Z,3.27
2023-01-12T02:36:24.082Z,3.10
2023-01-12T02:38:48.249Z,3.00
2023-01-12T02:41:45.244Z,3.03
2023-01-12T02:43:48.168Z,2.90
2023-01-12T02:45:55.752Z,3.17
2023-01-12T02:48:28.226Z,3.27
2023-01-12T02:50:46.577Z,2.67
2023-01-12T02:52:58.089Z,2.80
2023-01-12T02:55:01.969Z,3.57
2023-01-12T02:57:07.538Z,3.10
2023-01-12T02:59:14.099Z,2.60
2023-01-12T03:01:17.942Z,2.97
2023-01-12T03:03:20.615Z,2.90
2023-01-12T03:05:22.367Z,2.90
2023-01-12T03:07:28.376Z,2.63
2023-01-12T03:09:44.940Z,3.20
2023-01-12T03:11:50.192Z,2.80
2023-01-12T03:13:58.640Z,3.00
2023-01-12T03:16:02.483Z,2.87
2023-01-12T03:18:27.061Z,3.03
2023-01-12T03:20:32.990Z,3.17
2023-01-12T03:22:38.062Z,3.27
2023-01-12T03:24:45.524Z,3.07
2023-01-12T03:26:51.424Z,3.07
2023-01-12T03:28:59.250Z,3.10
2023-01-12T03:31:13.023Z,3.30
2023-01-12T03:33:14.816Z,2.90
2023-01-12T03:35:21.345Z,2.70
2023-01-12T03:37:48.895Z,2.70
2023-01-12T03:40:12.141Z,3.20
2023-01-12T03:42:32.901Z,3.13
2023-01-12T03:44:49.879Z,2.90
2023-01-12T03:46:58.247Z,3.37
2023-01-12T03:49:19.194Z,3.87
2023-01-12T03:51:25.780Z,3.23
2023-01-12T03:53:29.398Z,2.90
2023-01-12T03:55:32.429Z,2.90
2023-01-12T03:57:35.699Z,2.80
2023-01-12T03:59:39.575Z,2.80
2023-01-12T04:01:46.057Z,2.60
2023-01-12T04:03:47.791Z,2.87
2023-01-12T04:05:49.535Z,3.47
2023-01-12T04:07:51.246Z,2.80
2023-01-12T04:09:52.944Z,2.50
2023-01-12T04:12:15.372Z,2.80
2023-01-12T04:14:17.113Z,2.73
2023-01-12T04:16:21.783Z,3.20
2023-01-12T04:18:24.549Z,4.10
2023-01-12T04:20:26.357Z,2.57
2023-01-12T04:22:43.153Z,2.93
2023-01-12T04:24:44.886Z,2.83
2023-01-12T04:26:46.896Z,3.33
2023-01-12T04:28:49.199Z,2.87
2023-01-12T04:30:53.148Z,2.90
2023-01-12T04:32:57.794Z,3.23
2023-01-12T04:34:59.563Z,3.07
2023-01-12T04:37:03.865Z,3.90
2023-01-12T04:39:07.743Z,3.27
2023-01-12T04:41:10.146Z,2.13
2023-01-12T04:43:11.990Z,2.83
2023-01-12T04:45:13.748Z,3.10
2023-01-12T04:47:15.383Z,3.47
2023-01-12T04:49:17.691Z,3.40
2023-01-12T04:51:19.494Z,2.83
2023-01-12T04:53:21.976Z,2.80
2023-01-12T04:55:23.849Z,3.03
2023-01-12T04:57:25.953Z,2.70
2023-01-12T04:59:29.169Z,3.13
2023-01-12T05:01:31.125Z,3.47
2023-01-12T05:03:38.903Z,2.93
2023-01-12T05:05:43.226Z,3.57
2023-01-12T05:08:04.303Z,3.40
2023-01-12T05:10:24.691Z,2.90
2023-01-12T05:12:28.070Z,2.77
2023-01-12T05:14:29.754Z,3.27
2023-01-12T05:16:32.884Z,3.60
2023-01-12T05:18:35.976Z,3.17
2023-01-12T05:20:38.263Z,3.30
2023-01-12T05:22:40.067Z,3.13
2023-01-12T05:24:41.878Z,3.23
2023-01-12T05:26:43.533Z,3.40
2023-01-12T05:28:48.741Z,3.20
2023-01-12T05:30:51.242Z,2.60
2023-01-12T05:32:53.152Z,3.07
2023-01-12T05:34:54.909Z,3.97
2023-01-12T05:36:56.632Z,3.47
2023-01-12T05:39:03.942Z,3.40
2023-01-12T05:41:12.181Z,3.37
2023-01-12T05:43:33.103Z,3.40
2023-01-12T05:45:35.328Z,2.70
2023-01-12T05:47:37.163Z,3.90
2023-01-12T05:49:38.912Z,2.53
2023-01-12T05:51:40.639Z,3.00
2023-01-12T05:53:45.641Z,2.77
2023-01-12T05:55:48.502Z,3.43
2023-01-12T05:57:50.241Z,3.23
2023-01-12T05:59:52.010Z,3.40
2023-01-12T06:01:53.944Z,2.90
2023-01-12T06:03:58.477Z,3.00
2023-01-12T06:06:00.229Z,3.33
2023-01-12T06:08:02.789Z,3.13
2023-01-12T06:10:05.689Z,3.00
2023-01-12T06:12:29.592Z,2.73
2023-01-12T06:14:33.377Z,3.30
2023-01-12T06:16:41.707Z,3.33
2023-01-12T06:18:43.485Z,2.73
2023-01-12T06:20:47.378Z,3.00
2023-01-12T06:22:49.045Z,3.70
2023-01-12T06:24:50.824Z,3.57
2023-01-12T06:26:55.813Z,3.13
2023-01-12T06:28:57.486Z,3.63
2023-01-12T06:31:03.081Z,3.73
2023-01-12T06:33:04.792Z,3.23
2023-01-12T06:35:18.281Z,3.10
2023-01-12T06:37:20.975Z,3.03
2023-01-12T06:39:24.820Z,2.97
2023-01-12T06:41:45.212Z,2.73
2023-01-12T06:43:46.976Z,2.20
2023-01-12T06:45:48.868Z,3.47
2023-01-12T06:47:52.051Z,1.77
2023-01-12T06:49:54.188Z,2.77
2023-01-12T06:51:55.970Z,2.63
2023-01-12T06:53:57.702Z,2.37
2023-01-12T06:56:03.361Z,2.40
2023-01-12T06:58:07.417Z,2.60
2023-01-12T07:00:12.674Z,3.20
2023-01-12T07:02:16.688Z,3.03
2023-01-12T07:04:18.556Z,2.60
2023-01-12T07:06:20.676Z,2.97
2023-01-12T07:08:22.313Z,2.83
2023-01-12T07:10:26.566Z,2.63
2023-01-12T07:12:30.943Z,2.83
2023-01-12T07:14:32.737Z,2.20
2023-01-12T07:16:34.615Z,1.90
2023-01-12T07:18:40.512Z,2.60
2023-01-12T07:20:42.168Z,2.33
2023-01-12T07:22:43.884Z,2.33
2023-01-12T07:24:45.647Z,2.67
2023-01-12T07:26:53.103Z,2.20
2023-01-12T07:28:56.220Z,2.33
2023-01-12T07:31:04.767Z,3.07
2023-01-12T07:33:12.290Z,3.07
2023-01-12T07:35:14.230Z,2.10
2023-01-12T07:37:15.886Z,2.40
2023-01-12T07:39:17.742Z,3.47
2023-01-12T07:41:37.981Z,2.33
2023-01-12T07:43:43.640Z,2.60
2023-01-12T07:45:46.147Z,2.90
2023-01-12T07:47:53.558Z,2.30
2023-01-12T07:49:55.224Z,2.50
2023-01-12T07:51:56.990Z,2.43
2023-01-12T07:53:58.710Z,2.57
2023-01-12T07:56:00.366Z,2.40
2023-01-12T07:58:03.456Z,2.37
2023-01-12T08:00:06.002Z,2.50
2023-01-12T08:02:17.020Z,2.20
2023-01-12T08:04:18.840Z,1.93
2023-01-12T08:06:20.626Z,2.43
2023-01-12T08:08:22.287Z,2.37
2023-01-12T08:10:26.610Z,2.13
2023-01-12T08:12:30.460Z,2.03
2023-01-12T08:14:37.398Z,2.47
2023-01-12T08:16:45.446Z,2.33
2023-01-12T08:18:56.847Z,2.43
2023-01-12T08:21:06.210Z,3.20
2023-01-12T08:23:17.842Z,2.60
2023-01-12T08:25:26.644Z,2.70
2023-01-12T08:27:31.670Z,2.63
2023-01-12T08:29:40.202Z,2.60
2023-01-12T08:31:44.996Z,2.10
2023-01-12T08:33:46.834Z,2.53
2023-01-12T08:35:50.862Z,2.40
2023-01-12T08:37:52.783Z,2.73
2023-01-12T08:39:54.777Z,2.17
2023-01-12T08:41:56.508Z,2.80
2023-01-12T08:44:12.176Z,2.83
2023-01-12T08:46:16.399Z,2.77
2023-01-12T08:48:20.581Z,2.33
2023-01-12T08:50:22.443Z,2.77
2023-01-12T08:52:25.438Z,2.40
2023-01-12T08:54:27.226Z,3.33
2023-01-12T08:56:29.542Z,2.53
2023-01-12T08:58:32.211Z,2.63
2023-01-12T09:00:33.992Z,2.20
2023-01-12T09:02:35.788Z,2.53
2023-01-12T09:04:40.487Z,2.20
2023-01-12T09:06:44.761Z,2.90
2023-01-12T09:08:47.266Z,2.00
2023-01-12T09:10:48.968Z,2.30
2023-01-12T09:12:50.608Z,2.37
2023-01-12T09:14:53.630Z,2.10
2023-01-12T09:16:58.694Z,2.47
2023-01-12T09:19:01.116Z,2.37
2023-01-12T09:21:08.980Z,1.90
2023-01-12T09:23:10.690Z,2.37
2023-01-12T09:25:12.358Z,2.17
2023-01-12T09:27:14.006Z,2.20
2023-01-12T09:29:15.743Z,2.23
2023-01-12T09:31:22.372Z,1.93
2023-01-12T09:33:24.215Z,1.80
2023-01-12T09:35:26.234Z,2.40
2023-01-12T09:37:28.728Z,2.07
2023-01-12T09:39:31.267Z,1.93
2023-01-12T09:42:02.569Z,2.20
2023-01-12T09:44:23.446Z,1.97
2023-01-12T09:46:50.606Z,2.17
2023-01-12T09:48:52.295Z,2.10
2023-01-12T09:51:19.687Z,2.03
2023-01-12T09:53:41.346Z,2.03
2023-01-12T09:56:08.237Z,2.07
2023-01-12T09:58:19.253Z,1.60
2023-01-12T10:00:21.713Z,2.00
2023-01-12T10:02:24.757Z,1.80
2023-01-12T10:04:26.644Z,1.80
2023-01-12T10:06:28.796Z,1.80
2023-01-12T10:08:36.183Z,2.57
2023-01-12T10:10:39.677Z,1.67
2023-01-12T10:12:47.776Z,2.03
2023-01-12T10:15:02.212Z,1.67
2023-01-12T10:17:14.083Z,1.80
2023-01-12T10:19:46.839Z,1.87
2023-01-12T10:21:52.271Z,1.87
2023-01-12T10:23:54.689Z,2.10
2023-01-12T10:26:02.246Z,2.00
2023-01-12T10:28:34.946Z,1.67
2023-01-12T10:30:39.468Z,1.83
2023-01-12T10:32:42.368Z,2.00
2023-01-12T10:34:51.565Z,1.80
2023-01-12T10:36:58.770Z,1.50
2023-01-12T10:39:03.778Z,2.00
2023-01-12T10:41:20.364Z,1.80
2023-01-12T10:43:31.830Z,1.73
2023-01-12T10:45:33.538Z,1.63
2023-01-12T10:47:35.244Z,2.37
2023-01-12T10:49:38.213Z,1.87
2023-01-12T10:51:56.658Z,1.90
2023-01-12T10:54:18.860Z,1.40
2023-01-12T10:56:37.113Z,1.90
2023-01-12T10:58:39.272Z,1.50
2023-01-12T11:00:51.316Z,1.83
2023-01-12T11:02:53.725Z,1.60
2023-01-12T11:04:55.704Z,1.30
2023-01-12T11:07:03.994Z,1.23
2023-01-12T11:09:18.879Z,1.40
2023-01-12T11:11:33.563Z,1.30
2023-01-12T11:13:37.518Z,1.40
2023-01-12T11:16:00.308Z,1.43
2023-01-12T11:18:24.374Z,1.70
2023-01-12T11:20:55.610Z,1.40
2023-01-12T11:23:02.226Z,1.30
2023-01-12T11:25:12.757Z,1.20
2023-01-12T11:27:30.242Z,1.33
2023-01-12T11:29:41.712Z,1.23
2023-01-12T11:31:44.307Z,1.40
2023-01-12T11:34:02.974Z,1.20
2023-01-12T11:36:06.615Z,1.20
2023-01-12T11:38:21.094Z,1.43
2023-01-12T11:40:29.641Z,1.70
2023-01-12T11:42:52.334Z,1.80
2023-01-12T11:45:05.039Z,1.43
2023-01-12T11:47:14.841Z,1.70
2023-01-12T11:49:36.615Z,1.70
2023-01-12T11:51:39.284Z,1.57
2023-01-12T11:53:41.742Z,1.67
2023-01-12T11:56:03.223Z,1.80
2023-01-12T11:58:31.570Z,1.90
2023-01-12T12:00:50.647Z,1.47
2023-01-12T12:03:25.598Z,1.30
2023-01-12T12:05:36.318Z,1.67
2023-01-12T12:07:52.595Z,1.30
2023-01-12T12:10:27.545Z,1.30
2023-01-12T12:12:46.668Z,1.37
2023-01-12T12:15:32.210Z,1.30
2023-01-12T12:17:33.908Z,1.33
2023-01-12T12:20:07.699Z,1.50
2023-01-12T12:22:30.375Z,1.47
2023-01-12T12:25:01.617Z,1.20
2023-01-12T12:27:10.845Z,1.10
2023-01-12T12:29:21.319Z,1.30
2023-01-12T12:32:04.528Z,1.20
2023-01-12T12:34:31.771Z,1.17
2023-01-12T12:36:49.000Z,1.20
2023-01-12T12:39:24.161Z,1.13
2023-01-12T12:41:54.754Z,1.30
2023-01-12T12:45:00.670Z,1.20
2023-01-12T12:47:28.510Z,1.10
2023-01-12T12:49:32.742Z,1.17
2023-01-12T12:51:36.393Z,1.30
2023-01-12T12:53:42.090Z,1.20
2023-01-12T12:55:48.445Z,1.60
2023-01-12T12:58:26.167Z,1.37
2023-01-12T13:00:31.016Z,1.30
2023-01-12T13:02:52.109Z,1.40
2023-01-12T13:04:53.750Z,1.30
2023-01-12T13:07:05.822Z,1.10
2023-01-12T13:09:14.940Z,1.30
2023-01-12T13:11:19.901Z,1.27
2023-01-12T13:13:33.962Z,1.10
2023-01-12T13:15:38.474Z,1.00
2023-01-12T13:17:43.600Z,1.37
2023-01-12T13:20:04.442Z,1.33
2023-01-12T13:22:50.448Z,1.30
2023-01-12T13:24:53.825Z,1.07
2023-01-12T13:26:58.668Z,1.20
2023-01-12T13:29:28.286Z,1.17
2023-01-12T13:31:31.619Z,1.30
2023-01-12T13:33:36.772Z,1.40
2023-01-12T13:35:40.439Z,1.50
2023-01-12T13:37:54.644Z,1.10
2023-01-12T13:40:09.100Z,1.20
2023-01-12T13:42:38.422Z,1.40
2023-01-12T13:44:43.118Z,1.27
2023-01-12T13:46:47.783Z,1.40
2023-01-12T13:48:52.341Z,1.53
2023-01-12T13:50:58.407Z,1.40
2023-01-12T13:53:03.233Z,1.27
2023-01-12T13:55:19.819Z,1.50
2023-01-12T13:57:27.706Z,1.60
2023-01-12T13:59:30.832Z,1.40
2023-01-12T14:01:38.655Z,1.40
2023-01-12T14:04:03.697Z,1.63
2023-01-12T14:06:11.363Z,1.40
2023-01-12T14:08:50.671Z,1.20
2023-01-12T14:11:01.748Z,1.30
2023-01-12T14:13:08.639Z,1.40
2023-01-12T14:16:00.753Z,1.30
2023-01-12T14:18:09.464Z,1.60
2023-01-12T14:20:16.880Z,1.37
2023-01-12T14:22:21.348Z,1.60
2023-01-12T14:24:27.075Z,1.40
2023-01-12T14:26:28.832Z,1.20
2023-01-12T14:28:33.323Z,1.43
2023-01-12T14:30:36.400Z,1.60
2023-01-12T14:32:41.957Z,1.90
2023-01-12T14:34:52.122Z,1.97
2023-01-12T14:36:54.241Z,1.40
2023-01-12T14:38:58.745Z,1.57
2023-01-12T14:41:04.482Z,1.50
2023-01-12T14:43:35.343Z,1.47
2023-01-12T14:45:57.898Z,1.80
2023-01-12T14:48:24.487Z,1.60
2023-01-12T14:50:26.373Z,1.97
2023-01-12T14:52:33.121Z,1.90
2023-01-12T14:54:34.851Z,2.00
2023-01-12T14:56:52.124Z,1.70
2023-01-12T14:58:54.151Z,1.40
2023-01-12T15:00:56.022Z,1.57
2023-01-12T15:03:15.187Z,1.60
2023-01-12T15:05:21.557Z,1.57
2023-01-12T15:07:24.153Z,1.60
2023-01-12T15:09:33.965Z,1.40
2023-01-12T15:11:38.062Z,1.70
2023-01-12T15:13:58.031Z,1.50
2023-01-12T15:16:18.928Z,1.50
2023-01-12T15:18:39.509Z,1.37
2023-01-12T15:21:03.942Z,1.40
2023-01-12T15:23:29.863Z,1.57
2023-01-12T15:25:37.895Z,1.40
2023-01-12T15:27:39.968Z,1.30
2023-01-12T15:29:41.941Z,1.50
2023-01-12T15:31:43.980Z,1.40
2023-01-12T15:33:45.885Z,1.30
2023-01-12T15:35:48.055Z,1.50
2023-01-12T15:37:51.437Z,1.60
2023-01-12T15:39:55.343Z,1.60
2023-01-12T15:42:15.777Z,1.43
2023-01-12T15:44:19.772Z,1.40
2023-01-12T15:46:21.592Z,1.30
2023-01-12T15:48:23.426Z,1.67
2023-01-12T15:50:25.328Z,1.40
2023-01-12T15:52:34.376Z,1.60
2023-01-12T15:54:36.028Z,1.53
2023-01-12T15:56:37.668Z,1.60
2023-01-12T15:58:39.354Z,1.73
2023-01-12T16:00:43.612Z,1.40
2023-01-12T16:02:49.383Z,1.40
2023-01-12T16:04:52.164Z,1.47
2023-01-12T16:06:54.369Z,1.53
2023-01-12T16:08:56.149Z,1.83
2023-01-12T16:11:11.807Z,1.73
2023-01-12T16:13:13.642Z,1.87
2023-01-12T16:15:24.779Z,1.70
2023-01-12T16:17:26.726Z,1.80
2023-01-12T16:19:28.441Z,1.60
2023-01-12T16:21:30.489Z,1.73
2023-01-12T16:23:32.875Z,1.70
2023-01-12T16:25:35.695Z,2.07
2023-01-12T16:27:38.367Z,1.70
2023-01-12T16:29:40.090Z,2.07
2023-01-12T16:31:41.932Z,1.40
2023-01-12T16:33:47.350Z,1.70
2023-01-12T16:35:49.190Z,1.40
2023-01-12T16:37:54.828Z,1.57
2023-01-12T16:39:56.811Z,1.70
2023-01-12T16:42:06.985Z,1.30
2023-01-12T16:44:09.621Z,1.40
2023-01-12T16:46:13.164Z,1.40
2023-01-12T16:48:17.788Z,1.43
2023-01-12T16:50:19.476Z,1.30
2023-01-12T16:52:22.874Z,1.50
2023-01-12T16:54:24.575Z,1.57
2023-01-12T16:56:26.463Z,1.73
2023-01-12T16:58:28.204Z,1.23
2023-01-12T17:00:31.766Z,1.40
2023-01-12T17:02:36.415Z,1.30
2023-01-12T17:04:38.722Z,1.23
2023-01-12T17:06:40.765Z,1.63
2023-01-12T17:08:42.659Z,1.40
2023-01-12T17:10:44.484Z,1.10
2023-01-12T17:12:51.917Z,1.97
2023-01-12T17:15:00.049Z,1.40
2023-01-12T17:17:06.592Z,1.50
2023-01-12T17:19:18.046Z,1.23
2023-01-12T17:21:20.734Z,1.53
2023-01-12T17:23:22.530Z,1.70
2023-01-12T17:25:24.375Z,1.53
2023-01-12T17:27:28.483Z,1.47
2023-01-12T17:29:30.790Z,1.47
2023-01-12T17:31:33.538Z,1.30
2023-01-12T17:33:36.023Z,1.30
2023-01-12T17:35:38.104Z,1.60
2023-01-12T17:37:41.995Z,1.77
2023-01-12T17:39:43.754Z,1.50
2023-01-12T17:42:04.128Z,1.70
2023-01-12T17:44:08.818Z,1.70
2023-01-12T17:46:18.503Z,1.60
2023-01-12T17:48:20.270Z,1.67
2023-01-12T17:50:22.200Z,1.60
2023-01-12T17:52:24.044Z,1.90
2023-01-12T17:54:25.957Z,1.80
2023-01-12T17:56:31.430Z,1.60
2023-01-12T17:58:33.578Z,1.70
2023-01-12T18:00:35.304Z,1.60
2023-01-12T18:02:37.609Z,1.63
2023-01-12T18:04:39.333Z,1.80
2023-01-12T18:06:41.729Z,1.77
2023-01-12T18:08:47.422Z,1.60
2023-01-12T18:10:49.763Z,1.60
2023-01-12T18:12:51.621Z,1.80
2023-01-12T18:14:55.588Z,1.57
2023-01-12T18:16:57.816Z,1.90
2023-01-12T18:19:04.657Z,1.90
2023-01-12T18:21:11.887Z,1.50
2023-01-12T18:23:13.577Z,1.50
2023-01-12T18:25:15.958Z,2.67
2023-01-12T18:27:20.347Z,2.33
2023-01-12T18:29:22.481Z,2.10
2023-01-12T18:31:27.012Z,3.00
2023-01-12T18:33:31.287Z,3.20
2023-01-12T18:35:36.174Z,2.57
2023-01-12T18:37:40.462Z,2.90
2023-01-12T18:39:44.623Z,1.83
2023-01-12T18:42:05.406Z,2.20
2023-01-12T18:44:10.083Z,1.90
2023-01-12T18:46:12.447Z,1.60
2023-01-12T18:48:21.079Z,1.67
2023-01-12T18:50:43.441Z,1.80
2023-01-12T18:53:03.538Z,2.10
2023-01-12T18:55:05.924Z,1.90
2023-01-12T18:57:07.620Z,2.07
2023-01-12T18:59:09.251Z,1.60
2023-01-12T19:01:18.319Z,2.10
2023-01-12T19:03:22.734Z,2.03
2023-01-12T19:05:34.556Z,1.80
2023-01-12T19:07:51.070Z,2.27
2023-01-12T19:09:52.800Z,1.90
2023-01-12T19:11:58.850Z,1.63
2023-01-12T19:14:19.259Z,2.07
2023-01-12T19:16:41.974Z,1.70
2023-01-12T19:18:43.598Z,1.90
2023-01-12T19:20:45.260Z,1.43
2023-01-12T19:23:05.484Z,1.70
2023-01-12T19:25:26.031Z,1.60
2023-01-12T19:27:46.190Z,1.83
2023-01-12T19:29:47.962Z,1.40
2023-01-12T19:31:49.710Z,1.70
2023-01-12T19:33:53.846Z,1.60
2023-01-12T19:35:55.563Z,2.07
2023-01-12T19:37:59.450Z,1.60
2023-01-12T19:40:11.256Z,1.43
2023-01-12T19:42:33.286Z,1.60
2023-01-12T19:44:34.983Z,1.50
2023-01-12T19:46:36.753Z,1.40
2023-01-12T19:48:41.228Z,1.70
2023-01-12T19:50:44.062Z,1.70
2023-01-12T19:52:46.027Z,1.50
2023-01-12T19:54:48.910Z,1.53
2023-01-12T19:56:50.651Z,1.90
2023-01-12T19:58:52.459Z,1.70
2023-01-12T20:00:55.812Z,1.47
2023-01-12T20:02:58.041Z,1.70
2023-01-12T20:04:59.851Z,1.20
2023-01-12T20:07:01.706Z,1.63
2023-01-12T20:09:03.453Z,1.30
2023-01-12T20:11:05.752Z,1.90
2023-01-12T20:13:08.733Z,1.50
2023-01-12T20:15:13.295Z,1.50
2023-01-12T20:17:15.256Z,1.90
2023-01-12T20:19:20.568Z,1.60
2023-01-12T20:21:22.268Z,1.60
2023-01-12T20:23:23.946Z,1.93
2023-01-12T20:25:29.306Z,1.50
2023-01-12T20:27:32.783Z,1.60
2023-01-12T20:29:34.446Z,1.70
2023-01-12T20:31:36.312Z,1.70
2023-01-12T20:33:38.282Z,1.53
2023-01-12T20:35:45.275Z,1.50
2023-01-12T20:37:52.483Z,2.17
2023-01-12T20:39:57.973Z,1.40
2023-01-12T20:42:02.069Z,1.40
2023-01-12T20:44:08.447Z,2.10
2023-01-12T20:46:12.154Z,1.47
2023-01-12T20:48:14.772Z,1.40
2023-01-12T20:50:19.930Z,2.10
2023-01-12T20:52:23.698Z,1.70
2023-01-12T20:54:25.455Z,2.27
2023-01-12T20:56:27.189Z,1.47
2023-01-12T20:58:29.123Z,1.80
2023-01-12T21:00:31.917Z,1.30
2023-01-12T21:02:35.843Z,1.50
2023-01-12T21:04:37.548Z,2.23
2023-01-12T21:06:42.961Z,1.30
2023-01-12T21:08:46.884Z,1.60
2023-01-12T21:10:51.327Z,1.30
2023-01-12T21:12:53.646Z,1.30
2023-01-12T21:14:55.534Z,1.70
2023-01-12T21:16:57.270Z,1.57
2023-01-12T21:18:59.043Z,1.50
2023-01-12T21:21:01.168Z,1.50
2023-01-12T21:23:02.909Z,1.40
2023-01-12T21:25:07.649Z,1.57
2023-01-12T21:27:09.617Z,1.40
2023-01-12T21:29:11.471Z,1.20
2023-01-12T21:31:13.806Z,1.40
2023-01-12T21:33:15.518Z,1.40
2023-01-12T21:35:17.895Z,1.33
2023-01-12T21:37:20.451Z,1.60
2023-01-12T21:39:25.085Z,1.30
2023-01-12T21:41:26.922Z,1.50
2023-01-12T21:43:28.789Z,1.60
2023-01-12T21:45:38.597Z,1.20
2023-01-12T21:47:40.472Z,1.57
2023-01-12T21:49:42.159Z,1.57
2023-01-12T21:51:45.779Z,1.37
2023-01-12T21:53:47.453Z,1.40
2023-01-12T21:55:54.433Z,1.57
2023-01-12T21:57:56.305Z,1.30
2023-01-12T21:59:57.968Z,1.37
2023-01-12T22:01:59.823Z,1.30
2023-01-12T22:04:01.564Z,1.30
2023-01-12T22:06:11.857Z,1.20
2023-01-12T22:08:14.168Z,1.30
2023-01-12T22:10:19.813Z,1.37
2023-01-12T22:12:21.768Z,1.23
2023-01-12T22:14:23.494Z,1.10
2023-01-12T22:16:25.323Z,1.30
2023-01-12T22:18:28.505Z,1.07
2023-01-12T22:20:33.498Z,1.10
2023-01-12T22:22:38.426Z,1.07
2023-01-12T22:24:40.236Z,1.33
2023-01-12T22:26:42.133Z,1.10
2023-01-12T22:28:48.062Z,1.10
2023-01-12T22:30:49.751Z,1.40
2023-01-12T22:32:55.523Z,1.23
2023-01-12T22:34:59.885Z,1.30
2023-01-12T22:37:03.924Z,1.40
2023-01-12T22:39:05.547Z,1.30
2023-01-12T22:41:08.813Z,1.53
2023-01-12T22:43:29.300Z,1.47
2023-01-12T22:45:33.784Z,1.17
2023-01-12T22:47:47.761Z,1.40
2023-01-12T22:49:50.080Z,1.27
2023-01-12T22:51:52.498Z,1.37
2023-01-12T22:53:55.616Z,1.30
2023-01-12T22:56:03.288Z,1.40
2023-01-12T22:58:05.138Z,1.50
2023-01-12T23:00:12.583Z,1.17
2023-01-12T23:02:34.443Z,1.20
2023-01-12T23:04:36.106Z,1.30
2023-01-12T23:06:39.685Z,1.53
2023-01-12T23:08:43.111Z,1.40
2023-01-12T23:10:44.803Z,1.33
2023-01-12T23:13:06.411Z,1.40
2023-01-12T23:15:08.410Z,1.20
2023-01-12T23:17:12.483Z,1.60
2023-01-12T23:19:16.058Z,1.40
2023-01-12T23:21:20.579Z,1.20
2023-01-12T23:23:22.314Z,1.37
2023-01-12T23:25:24.037Z,2.00
2023-01-12T23:27:25.783Z,1.57
2023-01-12T23:29:27.620Z,1.50
2023-01-12T23:31:31.719Z,1.30
2023-01-12T23:33:33.489Z,1.47
2023-01-12T23:35:40.946Z,1.40
2023-01-12T23:37:44.571Z,1.50
2023-01-12T23:39:46.211Z,1.40
2023-01-12T23:41:48.274Z,1.30
2023-01-12T23:43:53.562Z,1.30
2023-01-12T23:45:55.261Z,1.30
2023-01-12T23:47:59.157Z,1.50
2023-01-12T23:50:00.904Z,1.33
2023-01-12T23:52:02.589Z,1.30
2023-01-12T23:54:04.549Z,1.40
2023-01-12T23:56:08.987Z,1.60
2023-01-12T23:58:10.633Z,1.20
